sensor_id;sensor_type;location;lat;lon;timestamp;P1;durP1;ratioP1;P2;durP2;ratioP2
15633;SDS011;14654;48.898;8.308;2023-02-18T00:02:05;1.37;;;1.27;;
15633;SDS011;14654;48.898;8.308;2023-02-18T00:04:30;1.40;;;1.30;;
15633;SDS011;14654;48.898;8.308;2023-02-18T00:06:56;1.77;;;1.60;;
15633;SDS011;14654;48.898;8.308;2023-02-18T00:09:22;1.50;;;1.40;;
15633;SDS011;14654;48.898;8.308;2023-02-18T00:11:47;1.40;;;1.30;;
15633;SDS011;14654;48.898;8.308;2023-02-18T00:14:13;1.10;;;1.00;;
15633;SDS011;14654;48.898;8.308;2023-02-18T00:16:40;1.20;;;1.10;;
15633;SDS011;14654;48.898;8.308;2023-02-18T00:19:07;1.30;;;1.20;;
15633;SDS011;14654;48.898;8.308;2023-02-18T00:21:35;1.67;;;1.20;;
15633;SDS011;14654;48.898;8.308;2023-02-18T00:24:01;1.50;;;1.40;;
15633;SDS011;14654;48.898;8.308;2023-02-18T00:26:28;1.20;;;1.10;;
15633;SDS011;14654;48.898;8.308;2023-02-18T00:28:53;2.77;;;1.47;;
15633;SDS011;14654;48.898;8.308;2023-02-18T00:31:20;1.30;;;1.20;;
15633;SDS011;14654;48.898;8.308;2023-02-18T00:33:47;1.47;;;1.30;;
15633;SDS011;14654;48.898;8.308;2023-02-18T00:36:13;1.23;;;1.13;;
15633;SDS011;14654;48.898;8.308;2023-02-18T00:38:47;1.60;;;1.40;;
15633;SDS011;14654;48.898;8.308;2023-02-18T00:41:14;1.40;;;1.30;;
15633;SDS011;14654;48.898;8.308;2023-02-18T00:43:40;1.40;;;1.30;;
15633;SDS011;14654;48.898;8.308;2023-02-18T00:46:06;1.50;;;1.23;;
15633;SDS011;14654;48.898;8.308;2023-02-18T00:48:32;2.40;;;1.40;;
15633;SDS011;14654;48.898;8.308;2023-02-18T00:50:58;1.40;;;1.30;;
15633;SDS011;14654;48.898;8.308;2023-02-18T00:53:24;1.53;;;1.43;;
15633;SDS011;14654;48.898;8.308;2023-02-18T00:55:51;1.90;;;1.60;;
15633;SDS011;14654;48.898;8.308;2023-02-18T00:58:16;1.50;;;1.40;;
15633;SDS011;14654;48.898;8.308;2023-02-18T01:00:41;1.53;;;1.40;;
15633;SDS011;14654;48.898;8.308;2023-02-18T01:03:07;1.40;;;1.30;;
15633;SDS011;14654;48.898;8.308;2023-02-18T01:05:33;1.70;;;1.60;;
15633;SDS011;14654;48.898;8.308;2023-02-18T01:07:58;2.63;;;1.87;;
15633;SDS011;14654;48.898;8.308;2023-02-18T01:10:24;1.87;;;1.57;;
15633;SDS011;14654;48.898;8.308;2023-02-18T01:12:49;1.70;;;1.60;;
15633;SDS011;14654;48.898;8.308;2023-02-18T01:15:14;1.83;;;1.60;;
15633;SDS011;14654;48.898;8.308;2023-02-18T01:17:40;2.10;;;1.90;;
15633;SDS011;14654;48.898;8.308;2023-02-18T01:20:06;1.50;;;1.40;;
15633;SDS011;14654;48.898;8.308;2023-02-18T01:22:32;1.80;;;1.70;;
15633;SDS011;14654;48.898;8.308;2023-02-18T01:24:57;1.67;;;1.57;;
15633;SDS011;14654;48.898;8.308;2023-02-18T01:27:22;2.33;;;1.83;;
15633;SDS011;14654;48.898;8.308;2023-02-18T01:29:49;1.80;;;1.70;;
15633;SDS011;14654;48.898;8.308;2023-02-18T01:32:14;1.77;;;1.67;;
15633;SDS011;14654;48.898;8.308;2023-02-18T01:34:39;3.47;;;2.07;;
15633;SDS011;14654;48.898;8.308;2023-02-18T01:37:05;1.90;;;1.70;;
15633;SDS011;14654;48.898;8.308;2023-02-18T01:39:30;1.60;;;1.50;;
15633;SDS011;14654;48.898;8.308;2023-02-18T01:41:55;2.60;;;1.73;;
15633;SDS011;14654;48.898;8.308;2023-02-18T01:44:22;1.53;;;1.43;;
15633;SDS011;14654;48.898;8.308;2023-02-18T01:46:51;1.70;;;1.60;;
15633;SDS011;14654;48.898;8.308;2023-02-18T01:49:24;2.47;;;1.87;;
15633;SDS011;14654;48.898;8.308;2023-02-18T01:51:59;3.03;;;1.90;;
15633;SDS011;14654;48.898;8.308;2023-02-18T01:54:28;2.03;;;1.77;;
15633;SDS011;14654;48.898;8.308;2023-02-18T01:57:02;1.77;;;1.67;;
15633;SDS011;14654;48.898;8.308;2023-02-18T02:02:13;1.73;;;1.63;;
15633;SDS011;14654;48.898;8.308;2023-02-18T02:04:41;1.90;;;1.80;;
15633;SDS011;14654;48.898;8.308;2023-02-18T02:07:07;2.27;;;1.90;;
15633;SDS011;14654;48.898;8.308;2023-02-18T02:09:33;1.80;;;1.70;;
15633;SDS011;14654;48.898;8.308;2023-02-18T02:20:31;2.30;;;2.10;;
15633;SDS011;14654;48.898;8.308;2023-02-18T02:28:52;2.00;;;1.90;;
15633;SDS011;14654;48.898;8.308;2023-02-18T02:37:17;2.67;;;2.47;;
15633;SDS011;14654;48.898;8.308;2023-02-18T02:42:45;2.80;;;2.03;;
15633;SDS011;14654;48.898;8.308;2023-02-18T02:53:05;4.53;;;2.60;;
15633;SDS011;14654;48.898;8.308;2023-02-18T02:55:39;2.60;;;2.40;;
15633;SDS011;14654;48.898;8.308;2023-02-18T02:58:04;3.10;;;2.90;;
15633;SDS011;14654;48.898;8.308;2023-02-18T03:06:05;3.10;;;2.90;;
15633;SDS011;14654;48.898;8.308;2023-02-18T03:11:18;2.90;;;2.70;;
15633;SDS011;14654;48.898;8.308;2023-02-18T03:13:50;3.17;;;2.97;;
15633;SDS011;14654;48.898;8.308;2023-02-18T03:21:54;3.47;;;3.17;;
15633;SDS011;14654;48.898;8.308;2023-02-18T03:24:40;2.90;;;2.70;;
15633;SDS011;14654;48.898;8.308;2023-02-18T03:27:13;3.47;;;3.17;;
15633;SDS011;14654;48.898;8.308;2023-02-18T03:29:45;3.80;;;3.30;;
15633;SDS011;14654;48.898;8.308;2023-02-18T03:32:16;4.00;;;3.23;;
15633;SDS011;14654;48.898;8.308;2023-02-18T03:34:45;2.60;;;2.40;;
15633;SDS011;14654;48.898;8.308;2023-02-18T03:37:14;3.00;;;2.80;;
15633;SDS011;14654;48.898;8.308;2023-02-18T03:39:41;2.50;;;2.30;;
15633;SDS011;14654;48.898;8.308;2023-02-18T03:42:10;2.57;;;2.30;;
15633;SDS011;14654;48.898;8.308;2023-02-18T03:44:35;2.57;;;2.37;;
15633;SDS011;14654;48.898;8.308;2023-02-18T03:47:00;2.77;;;2.57;;
15633;SDS011;14654;48.898;8.308;2023-02-18T03:49:26;2.70;;;2.50;;
15633;SDS011;14654;48.898;8.308;2023-02-18T03:51:51;3.00;;;2.70;;
15633;SDS011;14654;48.898;8.308;2023-02-18T03:54:17;2.47;;;2.20;;
15633;SDS011;14654;48.898;8.308;2023-02-18T03:56:42;2.80;;;2.50;;
15633;SDS011;14654;48.898;8.308;2023-02-18T03:59:08;2.97;;;2.10;;
15633;SDS011;14654;48.898;8.308;2023-02-18T04:01:35;2.50;;;2.30;;
15633;SDS011;14654;48.898;8.308;2023-02-18T04:04:00;2.67;;;2.47;;
15633;SDS011;14654;48.898;8.308;2023-02-18T04:06:27;2.67;;;2.43;;
15633;SDS011;14654;48.898;8.308;2023-02-18T04:08:52;2.90;;;2.70;;
15633;SDS011;14654;48.898;8.308;2023-02-18T04:11:17;2.60;;;2.40;;
15633;SDS011;14654;48.898;8.308;2023-02-18T04:13:43;2.10;;;1.90;;
15633;SDS011;14654;48.898;8.308;2023-02-18T04:16:08;2.90;;;2.37;;
15633;SDS011;14654;48.898;8.308;2023-02-18T04:18:33;2.60;;;2.40;;
15633;SDS011;14654;48.898;8.308;2023-02-18T04:20:59;3.37;;;2.30;;
15633;SDS011;14654;48.898;8.308;2023-02-18T04:23:24;2.40;;;2.20;;
15633;SDS011;14654;48.898;8.308;2023-02-18T04:25:50;2.40;;;2.20;;
15633;SDS011;14654;48.898;8.308;2023-02-18T04:28:15;2.30;;;2.10;;
15633;SDS011;14654;48.898;8.308;2023-02-18T04:30:41;2.57;;;2.27;;
15633;SDS011;14654;48.898;8.308;2023-02-18T04:33:08;2.20;;;1.90;;
15633;SDS011;14654;48.898;8.308;2023-02-18T04:35:33;2.50;;;2.30;;
15633;SDS011;14654;48.898;8.308;2023-02-18T04:37:59;2.10;;;1.90;;
15633;SDS011;14654;48.898;8.308;2023-02-18T04:40:24;1.80;;;1.70;;
15633;SDS011;14654;48.898;8.308;2023-02-18T04:42:53;2.17;;;2.07;;
15633;SDS011;14654;48.898;8.308;2023-02-18T04:45:19;2.40;;;2.20;;
15633;SDS011;14654;48.898;8.308;2023-02-18T04:47:44;2.27;;;2.10;;
15633;SDS011;14654;48.898;8.308;2023-02-18T04:50:09;2.47;;;2.27;;
15633;SDS011;14654;48.898;8.308;2023-02-18T04:52:35;2.03;;;1.83;;
15633;SDS011;14654;48.898;8.308;2023-02-18T04:55:00;2.33;;;2.13;;
15633;SDS011;14654;48.898;8.308;2023-02-18T04:57:25;2.70;;;2.50;;
15633;SDS011;14654;48.898;8.308;2023-02-18T04:59:51;2.30;;;2.10;;
15633;SDS011;14654;48.898;8.308;2023-02-18T05:02:16;2.10;;;1.90;;
15633;SDS011;14654;48.898;8.308;2023-02-18T05:04:41;3.10;;;2.50;;
15633;SDS011;14654;48.898;8.308;2023-02-18T05:07:07;2.70;;;2.37;;
15633;SDS011;14654;48.898;8.308;2023-02-18T05:09:32;2.33;;;2.13;;
15633;SDS011;14654;48.898;8.308;2023-02-18T05:11:57;2.77;;;2.57;;
15633;SDS011;14654;48.898;8.308;2023-02-18T05:14:22;2.20;;;2.10;;
15633;SDS011;14654;48.898;8.308;2023-02-18T05:16:48;2.43;;;2.23;;
15633;SDS011;14654;48.898;8.308;2023-02-18T05:19:13;2.67;;;2.33;;
15633;SDS011;14654;48.898;8.308;2023-02-18T05:21:39;2.10;;;2.00;;
15633;SDS011;14654;48.898;8.308;2023-02-18T05:24:05;2.17;;;2.07;;
15633;SDS011;14654;48.898;8.308;2023-02-18T05:26:30;2.33;;;2.13;;
15633;SDS011;14654;48.898;8.308;2023-02-18T05:28:55;2.30;;;2.17;;
15633;SDS011;14654;48.898;8.308;2023-02-18T05:31:21;2.20;;;2.00;;
15633;SDS011;14654;48.898;8.308;2023-02-18T05:33:46;2.63;;;2.33;;
15633;SDS011;14654;48.898;8.308;2023-02-18T05:36:12;2.33;;;2.13;;
15633;SDS011;14654;48.898;8.308;2023-02-18T05:38:37;2.40;;;2.20;;
15633;SDS011;14654;48.898;8.308;2023-02-18T05:41:02;2.60;;;2.40;;
15633;SDS011;14654;48.898;8.308;2023-02-18T05:43:28;2.80;;;1.90;;
15633;SDS011;14654;48.898;8.308;2023-02-18T05:45:53;2.43;;;2.23;;
15633;SDS011;14654;48.898;8.308;2023-02-18T05:48:18;2.20;;;2.10;;
15633;SDS011;14654;48.898;8.308;2023-02-18T05:50:44;3.47;;;2.60;;
15633;SDS011;14654;48.898;8.308;2023-02-18T05:53:09;2.67;;;2.43;;
15633;SDS011;14654;48.898;8.308;2023-02-18T05:55:34;2.40;;;2.20;;
15633;SDS011;14654;48.898;8.308;2023-02-18T05:58:03;2.57;;;2.37;;
15633;SDS011;14654;48.898;8.308;2023-02-18T06:00:29;2.20;;;2.00;;
15633;SDS011;14654;48.898;8.308;2023-02-18T06:02:56;2.17;;;1.97;;
15633;SDS011;14654;48.898;8.308;2023-02-18T06:05:22;2.70;;;2.20;;
15633;SDS011;14654;48.898;8.308;2023-02-18T06:07:47;2.63;;;2.40;;
15633;SDS011;14654;48.898;8.308;2023-02-18T06:10:12;1.90;;;1.80;;
15633;SDS011;14654;48.898;8.308;2023-02-18T06:12:38;2.63;;;2.00;;
15633;SDS011;14654;48.898;8.308;2023-02-18T06:15:03;2.13;;;1.93;;
15633;SDS011;14654;48.898;8.308;2023-02-18T06:17:29;1.97;;;1.87;;
15633;SDS011;14654;48.898;8.308;2023-02-18T06:19:54;2.83;;;1.97;;
15633;SDS011;14654;48.898;8.308;2023-02-18T06:22:19;2.77;;;2.57;;
15633;SDS011;14654;48.898;8.308;2023-02-18T06:24:46;2.33;;;2.13;;
15633;SDS011;14654;48.898;8.308;2023-02-18T06:27:11;2.40;;;2.20;;
15633;SDS011;14654;48.898;8.308;2023-02-18T06:29:36;2.20;;;2.03;;
15633;SDS011;14654;48.898;8.308;2023-02-18T06:32:02;1.97;;;1.87;;
15633;SDS011;14654;48.898;8.308;2023-02-18T06:34:27;2.10;;;2.00;;
15633;SDS011;14654;48.898;8.308;2023-02-18T06:36:53;2.00;;;1.90;;
15633;SDS011;14654;48.898;8.308;2023-02-18T06:39:18;2.00;;;1.87;;
15633;SDS011;14654;48.898;8.308;2023-02-18T06:41:43;2.20;;;2.00;;
15633;SDS011;14654;48.898;8.308;2023-02-18T06:44:08;2.40;;;2.20;;
15633;SDS011;14654;48.898;8.308;2023-02-18T06:46:35;2.67;;;2.47;;
15633;SDS011;14654;48.898;8.308;2023-02-18T06:49:01;2.30;;;2.10;;
15633;SDS011;14654;48.898;8.308;2023-02-18T06:51:26;2.30;;;2.10;;
15633;SDS011;14654;48.898;8.308;2023-02-18T06:53:51;2.50;;;2.30;;
15633;SDS011;14654;48.898;8.308;2023-02-18T06:56:17;2.13;;;1.93;;
15633;SDS011;14654;48.898;8.308;2023-02-18T06:58:42;2.00;;;1.90;;
15633;SDS011;14654;48.898;8.308;2023-02-18T07:01:07;1.80;;;1.70;;
15633;SDS011;14654;48.898;8.308;2023-02-18T07:03:33;2.23;;;2.03;;
15633;SDS011;14654;48.898;8.308;2023-02-18T07:05:58;2.00;;;1.80;;
15633;SDS011;14654;48.898;8.308;2023-02-18T07:08:24;1.63;;;1.53;;
15633;SDS011;14654;48.898;8.308;2023-02-18T07:10:49;2.07;;;1.90;;
15633;SDS011;14654;48.898;8.308;2023-02-18T07:13:14;2.00;;;1.90;;
15633;SDS011;14654;48.898;8.308;2023-02-18T07:15:40;2.30;;;2.10;;
15633;SDS011;14654;48.898;8.308;2023-02-18T07:18:05;2.07;;;1.90;;
15633;SDS011;14654;48.898;8.308;2023-02-18T07:20:31;2.03;;;1.80;;
15633;SDS011;14654;48.898;8.308;2023-02-18T07:22:56;1.60;;;1.50;;
15633;SDS011;14654;48.898;8.308;2023-02-18T07:25:22;1.90;;;1.60;;
15633;SDS011;14654;48.898;8.308;2023-02-18T07:27:47;1.67;;;1.57;;
15633;SDS011;14654;48.898;8.308;2023-02-18T07:30:13;1.60;;;1.50;;
15633;SDS011;14654;48.898;8.308;2023-02-18T07:32:38;2.47;;;2.00;;
15633;SDS011;14654;48.898;8.308;2023-02-18T07:35:04;3.27;;;2.87;;
15633;SDS011;14654;48.898;8.308;2023-02-18T07:37:30;4.53;;;4.23;;
15633;SDS011;14654;48.898;8.308;2023-02-18T07:39:56;4.37;;;3.97;;
15633;SDS011;14654;48.898;8.308;2023-02-18T07:42:21;3.57;;;3.27;;
15633;SDS011;14654;48.898;8.308;2023-02-18T07:44:46;5.83;;;4.03;;
15633;SDS011;14654;48.898;8.308;2023-02-18T07:47:13;4.83;;;4.37;;
15633;SDS011;14654;48.898;8.308;2023-02-18T07:49:41;7.30;;;6.53;;
15633;SDS011;14654;48.898;8.308;2023-02-18T07:52:07;4.80;;;4.40;;
15633;SDS011;14654;48.898;8.308;2023-02-18T07:54:32;5.23;;;4.83;;
15633;SDS011;14654;48.898;8.308;2023-02-18T07:56:59;4.20;;;3.03;;
15633;SDS011;14654;48.898;8.308;2023-02-18T07:59:24;2.97;;;2.43;;
15633;SDS011;14654;48.898;8.308;2023-02-18T08:01:49;2.97;;;2.50;;
15633;SDS011;14654;48.898;8.308;2023-02-18T08:04:14;2.20;;;2.00;;
15633;SDS011;14654;48.898;8.308;2023-02-18T08:06:41;2.20;;;2.00;;
15633;SDS011;14654;48.898;8.308;2023-02-18T08:09:10;2.77;;;2.57;;
15633;SDS011;14654;48.898;8.308;2023-02-18T08:11:35;4.23;;;3.80;;
15633;SDS011;14654;48.898;8.308;2023-02-18T08:14:00;4.50;;;4.20;;
15633;SDS011;14654;48.898;8.308;2023-02-18T08:16:26;3.17;;;2.87;;
15633;SDS011;14654;48.898;8.308;2023-02-18T08:18:52;2.17;;;1.97;;
15633;SDS011;14654;48.898;8.308;2023-02-18T08:21:18;2.07;;;1.97;;
15633;SDS011;14654;48.898;8.308;2023-02-18T08:23:45;3.60;;;3.10;;
15633;SDS011;14654;48.898;8.308;2023-02-18T08:26:11;3.83;;;3.43;;
15633;SDS011;14654;48.898;8.308;2023-02-18T08:28:37;7.20;;;6.47;;
15633;SDS011;14654;48.898;8.308;2023-02-18T08:31:02;8.03;;;7.23;;
15633;SDS011;14654;48.898;8.308;2023-02-18T08:33:28;9.23;;;8.33;;
15633;SDS011;14654;48.898;8.308;2023-02-18T08:35:53;7.10;;;6.40;;
15633;SDS011;14654;48.898;8.308;2023-02-18T08:38:19;8.43;;;7.10;;
15633;SDS011;14654;48.898;8.308;2023-02-18T08:40:45;8.63;;;6.60;;
15633;SDS011;14654;48.898;8.308;2023-02-18T08:43:10;7.40;;;6.90;;
15633;SDS011;14654;48.898;8.308;2023-02-18T08:45:37;4.93;;;4.63;;
15633;SDS011;14654;48.898;8.308;2023-02-18T08:48:03;5.37;;;4.97;;
15633;SDS011;14654;48.898;8.308;2023-02-18T08:50:30;4.33;;;4.03;;
15633;SDS011;14654;48.898;8.308;2023-02-18T08:52:55;3.10;;;2.87;;
15633;SDS011;14654;48.898;8.308;2023-02-18T08:55:24;5.00;;;4.60;;
15633;SDS011;14654;48.898;8.308;2023-02-18T08:57:50;8.70;;;7.93;;
15633;SDS011;14654;48.898;8.308;2023-02-18T09:00:16;5.33;;;4.83;;
15633;SDS011;14654;48.898;8.308;2023-02-18T09:02:42;4.67;;;4.37;;
15633;SDS011;14654;48.898;8.308;2023-02-18T09:05:08;3.17;;;2.97;;
15633;SDS011;14654;48.898;8.308;2023-02-18T09:07:35;2.87;;;2.63;;
15633;SDS011;14654;48.898;8.308;2023-02-18T09:10:01;2.90;;;2.70;;
15633;SDS011;14654;48.898;8.308;2023-02-18T09:12:27;2.40;;;2.20;;
15633;SDS011;14654;48.898;8.308;2023-02-18T09:14:52;3.03;;;2.83;;
15633;SDS011;14654;48.898;8.308;2023-02-18T09:17:18;2.40;;;2.27;;
15633;SDS011;14654;48.898;8.308;2023-02-18T09:19:43;2.80;;;1.80;;
15633;SDS011;14654;48.898;8.308;2023-02-18T09:22:08;2.90;;;2.10;;
15633;SDS011;14654;48.898;8.308;2023-02-18T09:24:37;1.90;;;1.70;;
15633;SDS011;14654;48.898;8.308;2023-02-18T09:27:04;1.50;;;1.40;;
15633;SDS011;14654;48.898;8.308;2023-02-18T09:29:30;2.10;;;1.90;;
15633;SDS011;14654;48.898;8.308;2023-02-18T09:31:58;2.47;;;1.77;;
15633;SDS011;14654;48.898;8.308;2023-02-18T09:34:25;1.80;;;1.70;;
15633;SDS011;14654;48.898;8.308;2023-02-18T09:36:50;1.83;;;1.70;;
15633;SDS011;14654;48.898;8.308;2023-02-18T09:39:16;1.70;;;1.60;;
15633;SDS011;14654;48.898;8.308;2023-02-18T09:41:43;2.50;;;1.00;;
15633;SDS011;14654;48.898;8.308;2023-02-18T09:44:19;1.60;;;1.50;;
15633;SDS011;14654;48.898;8.308;2023-02-18T09:46:47;2.13;;;1.43;;
15633;SDS011;14654;48.898;8.308;2023-02-18T09:49:21;1.97;;;1.50;;
15633;SDS011;14654;48.898;8.308;2023-02-18T09:51:49;2.47;;;1.43;;
15633;SDS011;14654;48.898;8.308;2023-02-18T09:54:17;1.63;;;1.53;;
15633;SDS011;14654;48.898;8.308;2023-02-18T09:56:44;1.70;;;1.60;;
15633;SDS011;14654;48.898;8.308;2023-02-18T09:59:28;1.60;;;1.50;;
15633;SDS011;14654;48.898;8.308;2023-02-18T10:01:56;1.77;;;1.50;;
15633;SDS011;14654;48.898;8.308;2023-02-18T10:06:48;1.87;;;1.63;;
15633;SDS011;14654;48.898;8.308;2023-02-18T10:11:45;2.87;;;1.50;;
15633;SDS011;14654;48.898;8.308;2023-02-18T10:14:22;3.13;;;1.60;;
15633;SDS011;14654;48.898;8.308;2023-02-18T10:16:49;1.77;;;1.60;;
15633;SDS011;14654;48.898;8.308;2023-02-18T10:19:20;1.70;;;1.50;;
15633;SDS011;14654;48.898;8.308;2023-02-18T10:21:46;1.50;;;1.40;;
15633;SDS011;14654;48.898;8.308;2023-02-18T10:24:26;2.17;;;1.77;;
15633;SDS011;14654;48.898;8.308;2023-02-18T10:27:05;1.93;;;1.20;;
15633;SDS011;14654;48.898;8.308;2023-02-18T10:29:33;1.67;;;1.50;;
15633;SDS011;14654;48.898;8.308;2023-02-18T10:37:30;1.73;;;1.60;;
15633;SDS011;14654;48.898;8.308;2023-02-18T10:42:41;1.63;;;1.30;;
15633;SDS011;14654;48.898;8.308;2023-02-18T10:48:16;2.20;;;1.40;;
15633;SDS011;14654;48.898;8.308;2023-02-18T10:50:52;2.50;;;1.73;;
15633;SDS011;14654;48.898;8.308;2023-02-18T10:55:54;1.30;;;1.20;;
15633;SDS011;14654;48.898;8.308;2023-02-18T10:58:34;2.00;;;1.70;;
15633;SDS011;14654;48.898;8.308;2023-02-18T11:01:04;1.97;;;1.63;;
15633;SDS011;14654;48.898;8.308;2023-02-18T11:03:38;2.03;;;1.10;;
15633;SDS011;14654;48.898;8.308;2023-02-18T11:06:06;1.43;;;1.33;;
15633;SDS011;14654;48.898;8.308;2023-02-18T11:09:02;1.53;;;1.43;;
15633;SDS011;14654;48.898;8.308;2023-02-18T11:11:31;1.43;;;1.33;;
15633;SDS011;14654;48.898;8.308;2023-02-18T11:14:01;1.40;;;1.30;;
15633;SDS011;14654;48.898;8.308;2023-02-18T11:16:36;1.87;;;1.40;;
15633;SDS011;14654;48.898;8.308;2023-02-18T11:22:21;1.30;;;1.20;;
15633;SDS011;14654;48.898;8.308;2023-02-18T11:24:58;1.43;;;1.33;;
15633;SDS011;14654;48.898;8.308;2023-02-18T11:27:34;2.57;;;1.30;;
15633;SDS011;14654;48.898;8.308;2023-02-18T11:30:13;1.53;;;1.40;;
15633;SDS011;14654;48.898;8.308;2023-02-18T11:32:46;1.27;;;1.17;;
15633;SDS011;14654;48.898;8.308;2023-02-18T11:35:21;1.90;;;1.40;;
15633;SDS011;14654;48.898;8.308;2023-02-18T11:37:49;1.80;;;1.20;;
15633;SDS011;14654;48.898;8.308;2023-02-18T11:40:23;1.50;;;1.33;;
15633;SDS011;14654;48.898;8.308;2023-02-18T11:45:39;1.47;;;1.20;;
15633;SDS011;14654;48.898;8.308;2023-02-18T11:48:15;1.67;;;1.20;;
15633;SDS011;14654;48.898;8.308;2023-02-18T11:50:43;1.17;;;1.00;;
15633;SDS011;14654;48.898;8.308;2023-02-18T11:53:28;1.50;;;1.17;;
15633;SDS011;14654;48.898;8.308;2023-02-18T11:56:05;2.20;;;1.10;;
15633;SDS011;14654;48.898;8.308;2023-02-18T11:58:42;6.23;;;3.97;;
15633;SDS011;14654;48.898;8.308;2023-02-18T12:04:16;2.47;;;1.40;;
15633;SDS011;14654;48.898;8.308;2023-02-18T12:09:50;1.33;;;1.10;;
15633;SDS011;14654;48.898;8.308;2023-02-18T12:12:27;1.87;;;1.20;;
15633;SDS011;14654;48.898;8.308;2023-02-18T12:14:57;1.47;;;1.23;;
15633;SDS011;14654;48.898;8.308;2023-02-18T12:17:35;1.53;;;1.00;;
15633;SDS011;14654;48.898;8.308;2023-02-18T12:20:26;1.20;;;1.10;;
15633;SDS011;14654;48.898;8.308;2023-02-18T12:23:13;1.50;;;1.40;;
15633;SDS011;14654;48.898;8.308;2023-02-18T12:36:25;1.93;;;1.83;;
15633;SDS011;14654;48.898;8.308;2023-02-18T12:39:15;2.63;;;2.00;;
15633;SDS011;14654;48.898;8.308;2023-02-18T12:42:01;1.83;;;1.73;;
15633;SDS011;14654;48.898;8.308;2023-02-18T12:44:38;2.37;;;1.57;;
15633;SDS011;14654;48.898;8.308;2023-02-18T12:50:02;2.53;;;1.90;;
15633;SDS011;14654;48.898;8.308;2023-02-18T12:52:49;1.70;;;1.60;;
15633;SDS011;14654;48.898;8.308;2023-02-18T12:55:34;2.43;;;1.90;;
15633;SDS011;14654;48.898;8.308;2023-02-18T12:58:10;2.33;;;2.13;;
15633;SDS011;14654;48.898;8.308;2023-02-18T13:03:33;2.17;;;1.93;;
15633;SDS011;14654;48.898;8.308;2023-02-18T13:10:05;2.00;;;1.90;;
15633;SDS011;14654;48.898;8.308;2023-02-18T13:17:52;2.30;;;2.10;;
15633;SDS011;14654;48.898;8.308;2023-02-18T13:22:52;2.13;;;2.03;;
15633;SDS011;14654;48.898;8.308;2023-02-18T13:25:19;1.90;;;1.80;;
15633;SDS011;14654;48.898;8.308;2023-02-18T13:33:39;1.67;;;1.57;;
15633;SDS011;14654;48.898;8.308;2023-02-18T13:39:16;1.70;;;1.50;;
15633;SDS011;14654;48.898;8.308;2023-02-18T13:41:45;1.90;;;1.80;;
15633;SDS011;14654;48.898;8.308;2023-02-18T13:46:51;2.07;;;1.50;;
15633;SDS011;14654;48.898;8.308;2023-02-18T13:49:25;1.93;;;1.20;;
15633;SDS011;14654;48.898;8.308;2023-02-18T13:51:56;1.80;;;1.70;;
15633;SDS011;14654;48.898;8.308;2023-02-18T13:56:53;2.10;;;1.40;;
15633;SDS011;14654;48.898;8.308;2023-02-18T14:17:47;1.83;;;1.27;;
15633;SDS011;14654;48.898;8.308;2023-02-18T14:20:24;2.30;;;1.03;;
15633;SDS011;14654;48.898;8.308;2023-02-18T14:22:55;1.57;;;0.90;;
15633;SDS011;14654;48.898;8.308;2023-02-18T14:25:26;1.87;;;1.20;;
15633;SDS011;14654;48.898;8.308;2023-02-18T14:28:00;1.97;;;0.87;;
15633;SDS011;14654;48.898;8.308;2023-02-18T14:30:32;1.23;;;1.10;;
15633;SDS011;14654;48.898;8.308;2023-02-18T14:33:02;1.20;;;1.10;;
15633;SDS011;14654;48.898;8.308;2023-02-18T14:35:29;1.60;;;1.10;;
15633;SDS011;14654;48.898;8.308;2023-02-18T14:44:02;1.50;;;1.40;;
15633;SDS011;14654;48.898;8.308;2023-02-18T14:49:13;1.53;;;1.43;;
15633;SDS011;14654;48.898;8.308;2023-02-18T14:51:46;1.03;;;1.03;;
15633;SDS011;14654;48.898;8.308;2023-02-18T14:54:14;1.97;;;1.03;;
15633;SDS011;14654;48.898;8.308;2023-02-18T14:59:41;1.37;;;1.27;;
15633;SDS011;14654;48.898;8.308;2023-02-18T15:02:22;1.30;;;1.20;;
15633;SDS011;14654;48.898;8.308;2023-02-18T15:04:51;2.10;;;1.30;;
15633;SDS011;14654;48.898;8.308;2023-02-18T15:07:18;1.50;;;1.20;;
15633;SDS011;14654;48.898;8.308;2023-02-18T15:09:45;1.33;;;1.23;;
15633;SDS011;14654;48.898;8.308;2023-02-18T15:12:17;1.23;;;1.13;;
15633;SDS011;14654;48.898;8.308;2023-02-18T15:14:46;1.30;;;1.20;;
15633;SDS011;14654;48.898;8.308;2023-02-18T15:17:15;2.93;;;1.70;;
15633;SDS011;14654;48.898;8.308;2023-02-18T15:19:49;1.53;;;1.30;;
15633;SDS011;14654;48.898;8.308;2023-02-18T15:22:20;1.23;;;1.07;;
15633;SDS011;14654;48.898;8.308;2023-02-18T15:24:48;1.07;;;1.00;;
15633;SDS011;14654;48.898;8.308;2023-02-18T15:27:16;1.43;;;1.20;;
15633;SDS011;14654;48.898;8.308;2023-02-18T15:29:47;0.90;;;0.83;;
15633;SDS011;14654;48.898;8.308;2023-02-18T15:34:48;1.67;;;1.30;;
15633;SDS011;14654;48.898;8.308;2023-02-18T15:37:14;1.30;;;1.20;;
15633;SDS011;14654;48.898;8.308;2023-02-18T15:39:40;1.37;;;1.27;;
15633;SDS011;14654;48.898;8.308;2023-02-18T15:42:25;1.30;;;1.20;;
15633;SDS011;14654;48.898;8.308;2023-02-18T15:45:08;1.40;;;1.30;;
15633;SDS011;14654;48.898;8.308;2023-02-18T15:47:41;1.73;;;1.10;;
15633;SDS011;14654;48.898;8.308;2023-02-18T15:50:21;1.23;;;1.13;;
15633;SDS011;14654;48.898;8.308;2023-02-18T15:52:48;1.40;;;1.30;;
15633;SDS011;14654;48.898;8.308;2023-02-18T15:55:34;1.93;;;1.40;;
15633;SDS011;14654;48.898;8.308;2023-02-18T15:58:15;1.30;;;1.20;;
15633;SDS011;14654;48.898;8.308;2023-02-18T16:03:23;1.60;;;1.50;;
15633;SDS011;14654;48.898;8.308;2023-02-18T16:08:55;1.70;;;1.60;;
15633;SDS011;14654;48.898;8.308;2023-02-18T16:11:47;1.60;;;1.50;;
15633;SDS011;14654;48.898;8.308;2023-02-18T16:14:32;1.33;;;1.23;;
15633;SDS011;14654;48.898;8.308;2023-02-18T16:17:05;1.60;;;1.33;;
15633;SDS011;14654;48.898;8.308;2023-02-18T16:19:33;1.40;;;1.23;;
15633;SDS011;14654;48.898;8.308;2023-02-18T16:24:48;1.67;;;1.57;;
15633;SDS011;14654;48.898;8.308;2023-02-18T16:27:15;2.97;;;1.50;;
15633;SDS011;14654;48.898;8.308;2023-02-18T16:29:41;1.43;;;1.30;;
15633;SDS011;14654;48.898;8.308;2023-02-18T16:32:08;1.87;;;1.70;;
15633;SDS011;14654;48.898;8.308;2023-02-18T16:34:33;2.00;;;1.50;;
15633;SDS011;14654;48.898;8.308;2023-02-18T16:37:00;1.83;;;1.70;;
15633;SDS011;14654;48.898;8.308;2023-02-18T16:39:44;1.60;;;1.50;;
15633;SDS011;14654;48.898;8.308;2023-02-18T16:42:10;1.80;;;1.60;;
15633;SDS011;14654;48.898;8.308;2023-02-18T16:44:38;1.60;;;1.50;;
15633;SDS011;14654;48.898;8.308;2023-02-18T16:47:04;1.50;;;1.40;;
15633;SDS011;14654;48.898;8.308;2023-02-18T16:49:30;1.50;;;1.40;;
15633;SDS011;14654;48.898;8.308;2023-02-18T16:51:56;1.57;;;1.47;;
15633;SDS011;14654;48.898;8.308;2023-02-18T16:54:23;2.30;;;1.67;;
15633;SDS011;14654;48.898;8.308;2023-02-18T16:56:49;1.77;;;1.47;;
15633;SDS011;14654;48.898;8.308;2023-02-18T16:59:14;1.57;;;1.47;;
15633;SDS011;14654;48.898;8.308;2023-02-18T17:01:40;1.47;;;1.37;;
15633;SDS011;14654;48.898;8.308;2023-02-18T17:04:12;2.20;;;2.00;;
15633;SDS011;14654;48.898;8.308;2023-02-18T17:06:39;2.00;;;1.90;;
15633;SDS011;14654;48.898;8.308;2023-02-18T17:09:10;1.83;;;1.73;;
15633;SDS011;14654;48.898;8.308;2023-02-18T17:11:42;1.80;;;1.70;;
15633;SDS011;14654;48.898;8.308;2023-02-18T17:14:10;1.90;;;1.80;;
15633;SDS011;14654;48.898;8.308;2023-02-18T17:16:38;1.90;;;1.80;;
15633;SDS011;14654;48.898;8.308;2023-02-18T17:19:03;2.10;;;2.00;;
15633;SDS011;14654;48.898;8.308;2023-02-18T17:21:28;2.23;;;2.03;;
15633;SDS011;14654;48.898;8.308;2023-02-18T17:23:54;2.57;;;1.90;;
15633;SDS011;14654;48.898;8.308;2023-02-18T17:26:20;2.90;;;2.10;;
15633;SDS011;14654;48.898;8.308;2023-02-18T17:28:51;2.50;;;2.30;;
15633;SDS011;14654;48.898;8.308;2023-02-18T17:31:19;2.30;;;2.10;;
15633;SDS011;14654;48.898;8.308;2023-02-18T17:33:47;3.20;;;2.00;;
15633;SDS011;14654;48.898;8.308;2023-02-18T17:36:13;2.33;;;2.00;;
15633;SDS011;14654;48.898;8.308;2023-02-18T17:38:39;1.97;;;1.77;;